Latest Weather Observations for Lockhart River

IDQ60801

Issued at 3:42 pm EST Wednesday 20 June 2018 (issued every 10 minutes, with the page automatically refreshed every 10 minutes)

About weather observations | Map of weather stations | Latest weather observations for QLD | Other Formats
Station Details ID: 028008 Name: LOCKHART RIVER AIRPORT Lat: -12.79 Lon: 143.30 Height: 18.5 m
Data from the previous 72 hours. | See also: Recent months at Lockhart River
Date/Time
EST
Temp
°C
App
Temp
°C
Dew
Point
°C
Rel
Hum
%
Delta-T
°C
Wind Press
QNH
hPa
Press
MSL
hPa
Rain since
9am
mm
Dir  Spd
km/h
Gust
km/h
Spd
kts
Gust
kts
20/03:30pm 24.4 22.5 18.6 70 3.7 SE 26 37 14 20 1016.0 1016.0 0.0
20/03:00pm 24.5 22.2 18.4 69 3.9 SE 28 35 15 19 1016.2 1016.2 0.0
20/02:30pm 25.2 24.2 18.9 68 4.0 SE 22 33 12 18 1016.1 1016.1 0.0
20/02:00pm 24.3 22.3 18.2 68 3.8 SE 26 35 14 19 1016.5 1016.5 0.0
20/01:30pm 25.0 23.8 18.4 66 4.2 SE 22 33 12 18 1016.7 1016.7 0.0
20/01:00pm 25.2 23.2 18.4 66 4.3 SE 26 39 14 21 1016.9 1016.9 0.0
20/12:30pm 24.6 22.9 18.1 67 4.1 SE 24 35 13 19 1017.3 1017.3 0.0
20/12:00pm 25.1 24.5 18.8 68 4.0 ESE 20 30 11 16 1017.6 1017.6 0.0
20/11:30am 24.9 22.9 18.4 67 4.1 SE 26 37 14 20 1017.7 1017.7 0.0
20/11:00am 24.9 23.5 18.8 69 3.9 ESE 24 35 13 19 1017.9 1017.9 0.0
20/10:30am 24.9 23.4 18.6 68 4.0 SE 24 37 13 20 1018.0 1018.0 0.0
20/10:00am 24.8 23.6 19.2 71 3.6 ESE 24 39 13 21 1018.3 1018.2 0.0
20/09:30am 24.1 22.8 19.0 73 3.2 SE 24 35 13 19 1018.4 1018.3 0.0
20/09:00am 24.0 23.1 19.1 74 3.1 SE 22 32 12 17 1018.4 1018.3 0.2
20/08:30am 23.7 23.2 19.0 75 3.0 SE 20 30 11 16 1018.3 1018.2 0.2
20/08:00am 23.4 23.0 18.9 76 2.8 SE 19 24 10 13 1017.9 1017.9 0.2
20/07:30am 23.2 22.8 18.9 77 2.7 SE 19 28 10 15 1017.6 1017.6 0.2
20/07:00am 23.2 22.6 18.9 77 2.7 SE 20 28 11 15 1017.1 1017.1 0.2
20/06:30am 23.1 22.7 18.8 77 2.7 SE 19 30 10 16 1016.7 1016.7 0.2
20/06:00am 22.5 23.0 19.3 82 2.0 SSE 15 20 8 11 1016.3 1016.3 0.2
20/05:30am 22.5 23.0 19.3 82 2.0 SSE 15 20 8 11 1016.3 1016.3 0.2
20/05:00am 22.6 22.2 19.4 82 2.0 SE 20 30 11 16 1016.2 1016.2 0.2
20/04:30am 22.8 22.4 19.0 79 2.4 SSE 19 24 10 13 1016.0 1016.0 0.2
20/04:00am 23.0 22.3 19.4 80 2.3 SE 22 33 12 18 1016.1 1016.1 0.2
20/03:30am 22.7 21.8 19.1 80 2.3 SE 22 32 12 17 1016.4 1016.4 0.2
20/03:00am 23.1 21.5 19.3 79 2.4 SE 26 37 14 20 1016.5 1016.5 0.2
20/02:30am 23.5 22.9 18.8 75 3.0 SE 20 32 11 17 1016.6 1016.6 0.2
20/02:00am 23.4 22.9 19.1 77 2.7 SE 20 32 11 17 1016.7 1016.7 0.2
20/01:30am 23.3 22.4 19.0 77 2.7 SE 22 32 12 17 1016.9 1016.9 0.2
20/01:00am 23.3 21.9 18.8 76 2.8 SE 24 32 13 17 1017.2 1017.2 0.2
20/12:30am 23.4 22.7 18.7 75 3.0 SE 20 30 11 16 1017.4 1017.4 0.2
20/12:00am 23.3 22.5 19.2 78 2.6 SE 22 33 12 18 1017.6 1017.6 0.2
 
Date/Time
EST
Temp
°C
App
Temp
°C
Dew
Point
°C
Rel
Hum
%
Delta-T
°C
Wind Press
QNH
hPa
Press
MSL
hPa
Rain since
9am
mm
Dir  Spd
km/h
Gust
km/h
Spd
kts
Gust
kts
19/11:30pm 23.1 22.2 19.1 78 2.5 SE 22 33 12 18 1017.6 1017.6 0.2
19/11:00pm 23.1 21.7 18.8 77 2.7 SE 24 30 13 16 1017.8 1017.8 0.2
19/10:30pm 22.8 21.7 18.6 77 2.6 SE 22 32 12 17 1018.1 1018.1 0.2
19/10:00pm 22.6 21.8 18.4 77 2.6 SE 20 30 11 16 1018.1 1018.1 0.2
19/09:30pm 23.0 21.8 18.3 75 2.9 SE 22 32 12 17 1018.3 1018.2 0.2
19/09:00pm 23.1 21.8 18.2 74 3.1 SE 22 30 12 16 1018.1 1018.1 0.2
19/08:30pm 23.3 21.7 18.4 74 3.1 SE 24 35 13 19 1017.7 1017.7 0.2
19/08:00pm 23.3 21.4 18.6 75 3.0 SE 26 35 14 19 1017.5 1017.5 0.2
19/07:30pm 23.4 22.0 18.7 75 3.0 SE 24 33 13 18 1017.2 1017.2 0.2
19/07:00pm 23.4 21.7 18.9 76 2.9 SE 26 35 14 19 1016.7 1016.7 0.2
19/06:30pm 23.3 21.9 18.8 76 2.8 SE 24 37 13 20 1016.4 1016.4 0.2
19/06:00pm 23.4 21.2 18.7 75 3.0 SE 28 41 15 22 1016.2 1016.2 0.2
19/05:30pm 23.4 22.0 18.9 76 2.9 SE 24 35 13 19 1015.8 1015.8 0.2
19/05:00pm 23.5 22.3 19.2 77 2.7 SE 24 37 13 20 1015.3 1015.3 0.2
19/04:30pm 23.6 22.8 19.3 77 2.7 SE 22 35 12 19 1015.1 1015.1 0.2
19/04:00pm 23.7 22.5 19.2 76 2.9 SE 24 33 13 18 1015.0 1015.0 0.2
19/03:30pm 24.0 23.3 19.5 76 2.9 SE 22 33 12 18 1015.0 1015.0 0.2
19/03:00pm 24.0 22.9 19.5 76 2.9 SE 24 35 13 19 1015.0 1015.0 0.2
19/02:30pm 24.1 23.4 19.6 76 2.9 SE 22 33 12 18 1015.2 1015.2 0.2
19/02:00pm 24.0 22.4 19.3 75 3.0 SE 26 37 14 20 1015.5 1015.5 0.2
19/01:30pm 24.1 22.1 19.2 74 3.1 SE 28 39 15 21 1015.7 1015.7 0.2
19/01:00pm 24.2 23.1 19.5 75 3.0 SE 24 37 13 20 1015.9 1015.9 0.2
19/12:30pm 24.4 22.0 19.2 73 3.3 SE 30 39 16 21 1016.2 1016.2 0.2
19/12:00pm 24.3 23.4 19.8 76 2.9 SE 24 39 13 21 1016.6 1016.6 0.2
19/11:30am 24.2 21.5 19.3 74 3.1 SE 32 43 17 23 1016.8 1016.8 0.2
19/11:00am 24.3 22.4 19.4 74 3.1 SE 28 43 15 23 1017.0 1017.0 0.2
19/10:30am 24.2 21.5 19.3 74 3.1 SE 32 41 17 22 1017.1 1017.1 0.2
19/10:00am 24.1 22.7 19.6 76 2.9 SE 26 33 14 18 1017.3 1017.3 0.2
19/09:30am 23.9 22.7 19.2 75 3.0 SE 24 41 13 22 1017.2 1017.2 0.2
19/09:01am 23.3 23.2 19.9 81 2.2 SSE 20 30 11 16 1017.2 1017.2 0.0
19/09:00am 23.3 23.1 19.7 80 2.3 SSE 20 30 11 16 1017.2 1017.2 0.0
19/08:30am 22.9 22.7 20.6 87 1.5 SE 22 35 12 19 1017.1 1017.1 0.0
19/08:00am 23.2 23.1 20.7 86 1.6 SE 22 32 12 17 1016.7 1016.7 0.0
19/07:30am 23.6 23.1 20.7 84 1.9 SE 24 35 13 19 1016.2 1016.2 0.0
19/07:00am 23.3 23.1 20.6 85 1.8 SE 22 32 12 17 1015.8 1015.8 0.0
19/06:30am 22.8 23.1 20.7 88 1.4 SE 20 30 11 16 1015.6 1015.6 0.0
19/06:00am 23.4 23.2 20.5 84 1.9 SE 22 39 12 21 1015.4 1015.4 0.0
19/05:30am 23.2 23.5 20.5 85 1.8 SSE 19 26 10 14 1015.2 1015.2 0.0
19/05:00am 23.1 23.3 20.6 86 1.6 SE 20 30 11 16 1014.9 1014.9 0.0
19/04:30am 23.0 23.4 20.9 88 1.4 SE 20 30 11 16 1014.8 1014.8 0.0
19/04:00am 23.2 23.1 20.7 86 1.6 SE 22 33 12 18 1014.7 1014.7 0.0
19/03:30am 23.3 23.2 20.8 86 1.6 SE 22 28 12 15 1014.7 1014.7 0.0
19/03:00am 22.9 23.5 21.0 89 1.2 SE 19 24 10 13 1014.8 1014.8 0.0
19/02:30am 23.2 23.5 20.7 86 1.6 SE 20 28 11 15 1015.0 1015.0 0.0
19/02:00am 23.6 23.9 20.7 84 1.9 SE 20 30 11 16 1015.2 1015.2 0.0
19/01:30am 23.6 23.4 20.5 83 2.0 SE 22 30 12 16 1015.4 1015.4 0.0
19/01:00am 23.5 23.6 20.4 83 2.0 SE 20 30 11 16 1015.6 1015.6 0.0
19/12:30am 23.5 23.8 20.4 83 2.0 SSE 19 26 10 14 1015.6 1015.6 0.0
19/12:00am 23.5 23.6 20.4 83 2.0 SE 20 30 11 16 1015.5 1015.5 0.0
 
Date/Time
EST
Temp
°C
App
Temp
°C
Dew
Point
°C
Rel
Hum
%
Delta-T
°C
Wind Press
QNH
hPa
Press
MSL
hPa
Rain since
9am
mm
Dir  Spd
km/h
Gust
km/h
Spd
kts
Gust
kts
18/11:30pm 23.4 23.5 20.3 83 2.0 SE 20 30 11 16 1015.6 1015.6 0.0
18/11:00pm 23.4 23.4 20.2 82 2.1 SSE 20 26 11 14 1015.8 1015.8 0.0
18/10:30pm 23.3 22.9 20.2 83 2.0 SSE 22 35 12 19 1016.2 1016.2 0.0
18/10:21pm 23.3 22.9 20.2 83 2.0 SE 22 32 12 17 1016.2 1016.2 0.0
18/10:00pm 23.5 23.0 20.0 81 2.3 SE 22 32 12 17 1016.2 1016.2 0.0
18/09:30pm 23.5 23.0 20.0 81 2.3 SE 22 32 12 17 1016.2 1016.2 0.0
18/09:00pm 23.5 23.4 20.0 81 2.3 SE 20 30 11 16 1016.0 1016.0 0.0
18/08:30pm 23.5 23.1 20.2 82 2.1 SE 22 41 12 22 1015.8 1015.8 0.0
18/08:07pm 23.6 23.2 20.1 81 2.3 SE 22 33 12 18 1015.6 1015.6 0.0
18/08:00pm 23.6 23.6 20.1 81 2.3 SE 20 33 11 18 1015.5 1015.5 0.0
18/07:30pm 23.5 22.8 20.2 82 2.1 SE 24 33 13 18 1015.4 1015.4 0.0
18/07:00pm 23.3 23.4 20.4 84 1.9 SE 20 30 11 16 1015.1 1015.1 0.0
18/06:30pm 23.1 22.8 20.4 85 1.8 SE 22 32 12 17 1014.8 1014.8 0.0
18/06:00pm 23.2 23.2 20.9 87 1.5 SE 22 35 12 19 1014.6 1014.6 0.0
18/05:30pm 23.5 23.0 20.8 85 1.8 SSE 24 35 13 19 1014.2 1014.2 0.0
18/05:00pm 23.9 23.7 20.6 82 2.2 SE 22 30 12 16 1013.9 1013.9 0.0
18/04:30pm 23.9 24.1 20.6 82 2.2 SE 20 28 11 15 1013.7 1013.7 0.0
18/04:00pm 24.1 24.3 20.6 81 2.3 SE 20 30 11 16 1013.7 1013.7 0.0
18/03:30pm 24.3 24.1 20.6 80 2.4 SE 22 33 12 18 1013.5 1013.5 0.0
18/03:00pm 24.1 23.5 20.4 80 2.4 SE 24 33 13 18 1013.5 1013.5 0.0
18/02:30pm 24.5 24.0 20.8 80 2.4 SE 24 33 13 18 1013.6 1013.6 0.0
18/02:00pm 24.6 24.2 20.9 80 2.4 SE 24 33 13 18 1013.7 1013.7 0.0
18/01:30pm 24.5 23.8 21.0 81 2.3 SE 26 35 14 19 1014.0 1014.0 0.0
18/01:00pm 24.1 24.5 21.0 83 2.0 SE 20 30 11 16 1014.4 1014.4 0.0
18/12:30pm 24.0 24.4 20.9 83 2.0 SSE 20 30 11 16 1014.6 1014.6 0.0
18/12:00pm 23.7 23.2 20.8 84 1.9 SSE 24 35 13 19 1015.0 1015.0 0.0
18/11:30am 24.0 22.8 20.9 83 2.0 SE 28 41 15 22 1015.1 1015.1 0.0
18/11:00am 23.8 23.8 20.9 84 1.9 SE 22 33 12 18 1015.4 1015.4 0.0
18/10:30am 23.6 24.1 21.1 86 1.6 SSE 20 32 11 17 1015.6 1015.6 0.0
18/10:00am 23.2 22.9 21.1 88 1.4 SE 24 39 13 21 1015.7 1015.7 0.0
18/09:30am 23.3 23.4 21.2 88 1.4 SE 22 32 12 17 1015.7 1015.7 0.0
18/09:00am 23.4 22.5 20.7 85 1.8 SE 26 37 14 20 1015.8 1015.8 0.2
18/08:30am 23.0 23.1 21.1 89 1.2 SE 22 41 12 22 1015.7 1015.7 0.2
18/08:00am 22.4 22.8 21.0 92 0.9 SE 20 30 11 16 1015.4 1015.4 0.2
18/07:40am 22.3 22.0 21.1 93 0.8 SE 24 32 13 17 1015.2 1015.2 0.2
18/07:30am 22.1 22.3 21.3 95 0.5 SE 22 32 12 17 1015.2 1015.2 0.2
18/07:00am 22.2 22.9 21.2 94 0.7 SSE 19 33 10 18 1014.9 1014.9 0.2
18/06:53am 22.3 22.7 20.9 92 0.9 SE 20 28 11 15 1014.9 1014.9 0.2
18/06:30am 22.8 22.3 20.7 88 1.4 SE 24 33 13 18 1014.7 1014.7 0.2
18/06:00am 23.1 22.9 20.6 86 1.6 SE 22 37 12 20 1014.7 1014.7 0.2
18/05:30am 23.4 23.6 20.5 84 1.9 SE 20 32 11 17 1014.5 1014.5 0.2
18/05:00am 23.4 23.3 20.7 85 1.8 SE 22 35 12 19 1014.3 1014.3 0.2
18/04:30am 23.1 24.0 20.8 87 1.5 SSE 17 20 9 11 1014.1 1014.1 0.2
18/04:00am 23.0 23.5 20.9 88 1.4 SSE 19 24 10 13 1014.0 1014.0 0.2
18/03:30am 23.1 23.5 21.0 88 1.4 SSE 20 30 11 16 1014.0 1014.0 0.2
18/03:00am 23.4 23.4 20.9 86 1.6 SE 22 33 12 18 1014.0 1014.0 0.2
18/02:30am 23.6 23.2 20.9 85 1.8 SE 24 32 13 17 1014.3 1014.3 0.2
18/02:00am 23.4 23.1 21.1 87 1.5 SE 24 32 13 17 1014.7 1014.7 0.2
18/01:30am 23.8 24.3 21.1 85 1.8 SE 20 24 11 13 1015.0 1015.0 0.2
18/01:00am 23.8 24.2 20.9 84 1.9 SSE 20 30 11 16 1015.0 1015.0 0.2
18/12:30am 23.9 23.4 20.8 83 2.0 SE 24 32 13 17 1015.2 1015.2 0.2
18/12:00am 23.8 23.4 20.9 84 1.9 SE 24 32 13 17 1015.3 1015.3 0.2
 
Date/Time
EST
Temp
°C
App
Temp
°C
Dew
Point
°C
Rel
Hum
%
Delta-T
°C
Wind Press
QNH
hPa
Press
MSL
hPa
Rain since
9am
mm
Dir  Spd
km/h
Gust
km/h
Spd
kts
Gust
kts
17/11:30pm 23.7 23.6 20.8 84 1.9 SSE 22 30 12 16 1015.6 1015.6 0.2
17/11:00pm 23.7 23.7 21.0 85 1.8 SSE 22 28 12 15 1015.8 1015.8 0.2
17/10:30pm 23.7 23.8 21.2 86 1.6 SE 22 33 12 18 1016.0 1016.0 0.2
17/10:00pm 23.6 24.3 21.5 88 1.4 SE 20 30 11 16 1016.1 1016.1 0.2
17/09:30pm 23.7 22.9 21.6 88 1.4 SE 28 43 15 23 1015.8 1015.8 0.2
17/09:00pm 23.5 24.0 21.9 91 1.1 SE 22 28 12 15 1015.6 1015.6 0.2
17/08:30pm 23.2 25.2 22.2 94 0.7 SSE 15 26 8 14 1015.7 1015.7 0.2
17/08:17pm 23.2 24.9 22.4 95 0.5 SE 17 22 9 12 1015.6 1015.6 0.2
17/08:00pm 23.4 24.5 22.4 94 0.7 SE 20 28 11 15 1015.6 1015.6 0.2
17/07:43pm 23.6 24.7 22.4 93 0.8 SE 20 30 11 16 1015.3 1015.3 0.2
17/07:30pm 23.7 23.2 22.1 91 1.1 SE 28 35 15 19 1015.2 1015.2 0.2
17/07:29pm 23.8 23.7 22.2 91 1.1 SE 26 35 14 19 1015.2 1015.2 0.2
17/07:00pm 24.4 24.5 21.9 86 1.7 SE 24 32 13 17 1014.9 1014.9 0.2
17/06:30pm 24.3 24.4 21.8 86 1.7 SSE 24 39 13 21 1014.7 1014.7 0.2
17/06:00pm 24.3 24.5 22.0 87 1.5 SE 24 32 13 17 1014.3 1014.3 0.2
17/05:30pm 24.2 23.9 21.9 87 1.5 SE 26 41 14 22 1013.9 1013.9 0.2
17/05:00pm 24.2 24.8 22.1 88 1.4 SE 22 33 12 18 1013.6 1013.6 0.2
17/04:30pm 23.9 25.2 22.3 91 1.1 SSE 19 26 10 14 1013.4 1013.4 0.2
17/04:00pm 23.6 24.9 22.4 93 0.8 SSE 19 30 10 16 1013.3 1013.3 0.2
17/03:54pm 23.6 24.9 22.4 93 0.8 SE 19 30 10 16 1013.2 1013.2 0.2

Other Formats:

Comma delimited format used in spreadsheet applications
http://www.bom.gov.au/fwo/IDQ60801/IDQ60801.94186.axf

JavaScript Object Notation format (JSON) in row-major order
http://www.bom.gov.au/fwo/IDQ60801/IDQ60801.94186.json